DNMM/LOS METAR and TAF weather

Enter ICAO airport designator
Station Type Date Time Source
DNMM METAR 2021/03/07 08:00 UTC NOAA

DNMM 070800Z 34004KT 8000 SCT013 FEW020CB 30/27 Q1013 NOSIG


Station Type Date Time Source
DNMM Decoded METAR 2021/03/07 08:00 UTC NOAA

Lagos / Ikeja, Nigeria (DNMM) 06-35N 003-20E 38M
Mar 07, 2021 - 03:00 AM EST / 2021.03.07 0800 UTC
Wind: from the NNW (340 degrees) at 5 MPH (4 KT):0
Visibility: 4 mile(s):0
Sky conditions: partly cloudy
Weather: Cumulonimbus clouds observed
Temperature: 86 F (30 C)
Heat index: 101.8 F (38.8 C):1
Dew Point: 80 F (27 C)
Relative Humidity: 84%
Pressure (altimeter): 29.91 in. Hg (1013 hPa)
ob: DNMM 070800Z 34004KT 8000 SCT013 FEW020CB 30/27 Q1013 NOSIG
cycle: 8

Station Type Date Time Source
DNMM TAF 2021/03/07 06:11 UTC NOAA

TAF DNMM 070500Z 0706/0812 VRB02KT 8000 SCT011
TEMPO 0706/0708 5000 BR
BECMG 0708/0710 24010KT BKN013
TEMPO 0711/0716 BKN013 FEW020CB
BECMG 0717/0719 VRB02KT SCT011
TEMPO 0805/0808 5000 BR
BECMG 0808/0810 25010KT BKN013

Example: see airport list